sensor_id;sensor_type;location;lat;lon;timestamp;temperature;humidity
56044;DHT22;41912;51.022;3.664;2023-01-30T00:00:53;6.60;99.90
56044;DHT22;41912;51.022;3.664;2023-01-30T00:03:20;6.60;99.90
56044;DHT22;41912;51.022;3.664;2023-01-30T00:05:46;6.70;99.90
56044;DHT22;41912;51.022;3.664;2023-01-30T00:08:11;6.60;99.90
56044;DHT22;41912;51.022;3.664;2023-01-30T00:10:37;6.60;99.90
56044;DHT22;41912;51.022;3.664;2023-01-30T00:13:03;6.60;99.90
56044;DHT22;41912;51.022;3.664;2023-01-30T00:15:28;6.60;99.90
56044;DHT22;41912;51.022;3.664;2023-01-30T00:17:54;6.60;99.90
56044;DHT22;41912;51.022;3.664;2023-01-30T00:20:20;6.80;99.90
56044;DHT22;41912;51.022;3.664;2023-01-30T00:22:45;6.70;99.90
56044;DHT22;41912;51.022;3.664;2023-01-30T00:25:11;6.80;99.90
56044;DHT22;41912;51.022;3.664;2023-01-30T00:27:36;6.70;99.90
56044;DHT22;41912;51.022;3.664;2023-01-30T00:30:02;6.80;99.90
56044;DHT22;41912;51.022;3.664;2023-01-30T00:32:30;6.80;99.90
56044;DHT22;41912;51.022;3.664;2023-01-30T00:34:56;6.80;99.90
56044;DHT22;41912;51.022;3.664;2023-01-30T00:37:21;6.90;99.90
56044;DHT22;41912;51.022;3.664;2023-01-30T00:39:47;6.80;99.90
56044;DHT22;41912;51.022;3.664;2023-01-30T00:42:13;6.80;99.90
56044;DHT22;41912;51.022;3.664;2023-01-30T00:44:57;6.80;99.90
56044;DHT22;41912;51.022;3.664;2023-01-30T00:47:41;6.80;99.90
56044;DHT22;41912;51.022;3.664;2023-01-30T00:50:08;6.80;99.90
56044;DHT22;41912;51.022;3.664;2023-01-30T00:52:33;6.80;99.90
56044;DHT22;41912;51.022;3.664;2023-01-30T00:54:59;6.80;99.90
56044;DHT22;41912;51.022;3.664;2023-01-30T00:57:25;6.90;99.90
56044;DHT22;41912;51.022;3.664;2023-01-30T00:59:50;6.90;99.90
56044;DHT22;41912;51.022;3.664;2023-01-30T01:02:16;7.00;99.90
56044;DHT22;41912;51.022;3.664;2023-01-30T01:04:42;7.00;99.90
56044;DHT22;41912;51.022;3.664;2023-01-30T01:07:09;7.00;99.90
56044;DHT22;41912;51.022;3.664;2023-01-30T01:09:35;7.00;99.90
56044;DHT22;41912;51.022;3.664;2023-01-30T01:12:00;7.00;99.90
56044;DHT22;41912;51.022;3.664;2023-01-30T01:14:26;7.10;99.90
56044;DHT22;41912;51.022;3.664;2023-01-30T01:16:52;7.00;99.90
56044;DHT22;41912;51.022;3.664;2023-01-30T01:19:17;7.00;99.90
56044;DHT22;41912;51.022;3.664;2023-01-30T01:21:43;7.10;99.90
56044;DHT22;41912;51.022;3.664;2023-01-30T01:24:12;7.10;99.90
56044;DHT22;41912;51.022;3.664;2023-01-30T01:26:38;7.10;99.90
56044;DHT22;41912;51.022;3.664;2023-01-30T01:29:04;7.10;99.90
56044;DHT22;41912;51.022;3.664;2023-01-30T01:31:30;7.10;99.90
56044;DHT22;41912;51.022;3.664;2023-01-30T01:33:56;7.10;99.90
56044;DHT22;41912;51.022;3.664;2023-01-30T01:36:22;7.20;99.90
56044;DHT22;41912;51.022;3.664;2023-01-30T01:38:48;7.20;99.90
56044;DHT22;41912;51.022;3.664;2023-01-30T01:41:15;7.30;99.90
56044;DHT22;41912;51.022;3.664;2023-01-30T01:46:19;7.40;99.90
56044;DHT22;41912;51.022;3.664;2023-01-30T01:48:53;7.40;99.90
56044;DHT22;41912;51.022;3.664;2023-01-30T01:51:37;7.40;99.90
56044;DHT22;41912;51.022;3.664;2023-01-30T01:54:13;7.40;99.90
56044;DHT22;41912;51.022;3.664;2023-01-30T01:56:42;7.50;99.90
56044;DHT22;41912;51.022;3.664;2023-01-30T01:59:41;7.50;99.90
56044;DHT22;41912;51.022;3.664;2023-01-30T02:02:10;7.60;99.90
56044;DHT22;41912;51.022;3.664;2023-01-30T02:04:39;7.60;99.90
56044;DHT22;41912;51.022;3.664;2023-01-30T02:07:36;7.60;99.90
56044;DHT22;41912;51.022;3.664;2023-01-30T02:10:04;7.60;99.90
56044;DHT22;41912;51.022;3.664;2023-01-30T02:12:31;7.60;99.90
56044;DHT22;41912;51.022;3.664;2023-01-30T02:14:58;7.70;99.90
56044;DHT22;41912;51.022;3.664;2023-01-30T02:17:24;7.70;99.90
56044;DHT22;41912;51.022;3.664;2023-01-30T02:26:04;7.80;99.90
56044;DHT22;41912;51.022;3.664;2023-01-30T02:37:03;7.70;99.90
56044;DHT22;41912;51.022;3.664;2023-01-30T02:48:04;7.60;99.90
56044;DHT22;41912;51.022;3.664;2023-01-30T02:50:42;7.70;99.90
56044;DHT22;41912;51.022;3.664;2023-01-30T02:53:09;7.70;99.90
56044;DHT22;41912;51.022;3.664;2023-01-30T02:55:35;7.70;99.90
56044;DHT22;41912;51.022;3.664;2023-01-30T02:58:02;7.70;99.90
56044;DHT22;41912;51.022;3.664;2023-01-30T03:01:23;7.70;99.90
56044;DHT22;41912;51.022;3.664;2023-01-30T03:09:14;7.80;99.90
56044;DHT22;41912;51.022;3.664;2023-01-30T03:11:48;7.90;99.90
56044;DHT22;41912;51.022;3.664;2023-01-30T03:14:28;7.90;99.90
56044;DHT22;41912;51.022;3.664;2023-01-30T03:16:57;7.90;99.90
56044;DHT22;41912;51.022;3.664;2023-01-30T03:19:24;7.90;99.90
56044;DHT22;41912;51.022;3.664;2023-01-30T03:21:50;7.90;99.90
56044;DHT22;41912;51.022;3.664;2023-01-30T03:24:16;7.90;99.90
56044;DHT22;41912;51.022;3.664;2023-01-30T03:26:47;7.90;99.90
56044;DHT22;41912;51.022;3.664;2023-01-30T03:29:13;8.00;99.90
56044;DHT22;41912;51.022;3.664;2023-01-30T03:31:39;8.00;99.90
56044;DHT22;41912;51.022;3.664;2023-01-30T03:34:05;8.00;99.90
56044;DHT22;41912;51.022;3.664;2023-01-30T03:36:30;8.00;99.90
56044;DHT22;41912;51.022;3.664;2023-01-30T03:38:56;8.00;99.90
56044;DHT22;41912;51.022;3.664;2023-01-30T03:41:22;8.00;99.90
56044;DHT22;41912;51.022;3.664;2023-01-30T03:43:47;8.00;99.90
56044;DHT22;41912;51.022;3.664;2023-01-30T03:46:13;8.00;99.90
56044;DHT22;41912;51.022;3.664;2023-01-30T03:48:38;8.00;99.90
56044;DHT22;41912;51.022;3.664;2023-01-30T03:51:04;8.10;99.90
56044;DHT22;41912;51.022;3.664;2023-01-30T03:53:30;8.00;99.90
56044;DHT22;41912;51.022;3.664;2023-01-30T03:55:55;8.00;99.90
56044;DHT22;41912;51.022;3.664;2023-01-30T03:58:21;8.10;99.90
56044;DHT22;41912;51.022;3.664;2023-01-30T04:00:46;8.00;99.90
56044;DHT22;41912;51.022;3.664;2023-01-30T04:03:12;8.10;99.90
56044;DHT22;41912;51.022;3.664;2023-01-30T04:05:42;8.10;99.90
56044;DHT22;41912;51.022;3.664;2023-01-30T04:08:08;8.10;99.90
56044;DHT22;41912;51.022;3.664;2023-01-30T04:10:34;8.10;99.90
56044;DHT22;41912;51.022;3.664;2023-01-30T04:13:00;8.20;99.90
56044;DHT22;41912;51.022;3.664;2023-01-30T04:15:25;8.20;99.90
56044;DHT22;41912;51.022;3.664;2023-01-30T04:17:51;8.20;99.90
56044;DHT22;41912;51.022;3.664;2023-01-30T04:20:17;8.20;99.90
56044;DHT22;41912;51.022;3.664;2023-01-30T04:22:42;8.30;99.90
56044;DHT22;41912;51.022;3.664;2023-01-30T04:25:08;8.30;99.90
56044;DHT22;41912;51.022;3.664;2023-01-30T04:27:34;8.30;99.90
56044;DHT22;41912;51.022;3.664;2023-01-30T04:29:59;8.30;99.90
56044;DHT22;41912;51.022;3.664;2023-01-30T04:32:26;8.30;99.90
56044;DHT22;41912;51.022;3.664;2023-01-30T04:34:51;8.30;99.90
56044;DHT22;41912;51.022;3.664;2023-01-30T04:37:17;8.30;99.90
56044;DHT22;41912;51.022;3.664;2023-01-30T04:39:42;8.30;99.90
56044;DHT22;41912;51.022;3.664;2023-01-30T04:42:08;8.40;99.90
56044;DHT22;41912;51.022;3.664;2023-01-30T04:44:34;8.40;99.90
56044;DHT22;41912;51.022;3.664;2023-01-30T04:46:59;8.40;99.90
56044;DHT22;41912;51.022;3.664;2023-01-30T04:49:25;8.40;99.90
56044;DHT22;41912;51.022;3.664;2023-01-30T04:51:51;8.40;99.90
56044;DHT22;41912;51.022;3.664;2023-01-30T04:54:16;8.40;99.90
56044;DHT22;41912;51.022;3.664;2023-01-30T04:56:42;8.50;99.90
56044;DHT22;41912;51.022;3.664;2023-01-30T04:59:08;8.50;99.90
56044;DHT22;41912;51.022;3.664;2023-01-30T05:01:36;8.50;99.90
56044;DHT22;41912;51.022;3.664;2023-01-30T05:04:02;8.50;99.90
56044;DHT22;41912;51.022;3.664;2023-01-30T05:06:29;8.50;99.90
56044;DHT22;41912;51.022;3.664;2023-01-30T05:08:55;8.50;99.90
56044;DHT22;41912;51.022;3.664;2023-01-30T05:11:22;8.50;99.90
56044;DHT22;41912;51.022;3.664;2023-01-30T05:13:49;8.50;99.90
56044;DHT22;41912;51.022;3.664;2023-01-30T05:16:15;8.50;99.90
56044;DHT22;41912;51.022;3.664;2023-01-30T05:18:41;8.60;99.90
56044;DHT22;41912;51.022;3.664;2023-01-30T05:21:16;8.60;99.90
56044;DHT22;41912;51.022;3.664;2023-01-30T05:23:43;8.60;99.90
56044;DHT22;41912;51.022;3.664;2023-01-30T05:26:08;8.60;99.90
56044;DHT22;41912;51.022;3.664;2023-01-30T05:28:34;8.60;99.90
56044;DHT22;41912;51.022;3.664;2023-01-30T05:31:01;8.60;99.90
56044;DHT22;41912;51.022;3.664;2023-01-30T05:33:27;8.60;99.90
56044;DHT22;41912;51.022;3.664;2023-01-30T05:35:53;8.70;99.90
56044;DHT22;41912;51.022;3.664;2023-01-30T05:38:18;8.60;99.90
56044;DHT22;41912;51.022;3.664;2023-01-30T05:40:44;8.70;99.90
56044;DHT22;41912;51.022;3.664;2023-01-30T05:43:10;8.70;99.90
56044;DHT22;41912;51.022;3.664;2023-01-30T05:45:36;8.70;99.90
56044;DHT22;41912;51.022;3.664;2023-01-30T05:48:02;8.70;99.90
56044;DHT22;41912;51.022;3.664;2023-01-30T05:50:28;8.70;99.90
56044;DHT22;41912;51.022;3.664;2023-01-30T05:52:53;8.80;99.90
56044;DHT22;41912;51.022;3.664;2023-01-30T05:55:19;8.70;99.90
56044;DHT22;41912;51.022;3.664;2023-01-30T05:57:45;8.80;99.90
56044;DHT22;41912;51.022;3.664;2023-01-30T06:00:11;8.80;99.90
56044;DHT22;41912;51.022;3.664;2023-01-30T06:02:36;8.80;99.90
56044;DHT22;41912;51.022;3.664;2023-01-30T06:05:02;8.70;99.90
56044;DHT22;41912;51.022;3.664;2023-01-30T06:07:28;8.80;99.90
56044;DHT22;41912;51.022;3.664;2023-01-30T06:09:53;8.80;99.90
56044;DHT22;41912;51.022;3.664;2023-01-30T06:12:19;8.80;99.90
56044;DHT22;41912;51.022;3.664;2023-01-30T06:14:45;8.80;99.90
56044;DHT22;41912;51.022;3.664;2023-01-30T06:17:10;8.80;99.90
56044;DHT22;41912;51.022;3.664;2023-01-30T06:19:36;8.80;99.90
56044;DHT22;41912;51.022;3.664;2023-01-30T06:22:01;8.80;99.90
56044;DHT22;41912;51.022;3.664;2023-01-30T06:24:27;8.90;99.90
56044;DHT22;41912;51.022;3.664;2023-01-30T06:26:53;8.90;99.90
56044;DHT22;41912;51.022;3.664;2023-01-30T06:29:19;8.90;99.90
56044;DHT22;41912;51.022;3.664;2023-01-30T06:31:45;8.90;99.90
56044;DHT22;41912;51.022;3.664;2023-01-30T06:34:10;8.90;99.90
56044;DHT22;41912;51.022;3.664;2023-01-30T06:36:36;8.90;99.90
56044;DHT22;41912;51.022;3.664;2023-01-30T06:39:02;8.90;99.90
56044;DHT22;41912;51.022;3.664;2023-01-30T06:41:28;8.90;99.90
56044;DHT22;41912;51.022;3.664;2023-01-30T06:43:53;8.90;99.90
56044;DHT22;41912;51.022;3.664;2023-01-30T06:46:20;8.90;99.90
56044;DHT22;41912;51.022;3.664;2023-01-30T06:48:45;8.90;99.90
56044;DHT22;41912;51.022;3.664;2023-01-30T06:51:11;8.90;99.90
56044;DHT22;41912;51.022;3.664;2023-01-30T06:53:37;8.90;99.90
56044;DHT22;41912;51.022;3.664;2023-01-30T06:56:02;8.90;99.90
56044;DHT22;41912;51.022;3.664;2023-01-30T06:58:28;8.90;99.90
56044;DHT22;41912;51.022;3.664;2023-01-30T07:00:54;9.00;99.90
56044;DHT22;41912;51.022;3.664;2023-01-30T07:03:20;8.90;99.90
56044;DHT22;41912;51.022;3.664;2023-01-30T07:05:46;8.90;99.90
56044;DHT22;41912;51.022;3.664;2023-01-30T07:08:12;8.80;99.90
56044;DHT22;41912;51.022;3.664;2023-01-30T07:10:39;8.90;99.90
56044;DHT22;41912;51.022;3.664;2023-01-30T07:13:05;8.90;99.90
56044;DHT22;41912;51.022;3.664;2023-01-30T07:15:31;8.90;99.90
56044;DHT22;41912;51.022;3.664;2023-01-30T07:17:57;8.80;99.90
56044;DHT22;41912;51.022;3.664;2023-01-30T07:20:23;8.80;99.90
56044;DHT22;41912;51.022;3.664;2023-01-30T07:22:53;8.80;99.90
56044;DHT22;41912;51.022;3.664;2023-01-30T07:25:20;8.70;99.90
56044;DHT22;41912;51.022;3.664;2023-01-30T07:27:50;8.70;99.90
56044;DHT22;41912;51.022;3.664;2023-01-30T07:30:16;8.70;99.90
56044;DHT22;41912;51.022;3.664;2023-01-30T07:32:42;8.70;99.90
56044;DHT22;41912;51.022;3.664;2023-01-30T07:35:08;8.60;99.90
56044;DHT22;41912;51.022;3.664;2023-01-30T07:37:33;8.60;99.90
56044;DHT22;41912;51.022;3.664;2023-01-30T07:39:59;8.60;99.90
56044;DHT22;41912;51.022;3.664;2023-01-30T07:42:24;8.60;99.90
56044;DHT22;41912;51.022;3.664;2023-01-30T07:44:50;8.60;99.90
56044;DHT22;41912;51.022;3.664;2023-01-30T07:47:16;8.60;99.90
56044;DHT22;41912;51.022;3.664;2023-01-30T07:49:44;8.60;99.90
56044;DHT22;41912;51.022;3.664;2023-01-30T07:52:10;8.60;99.90
56044;DHT22;41912;51.022;3.664;2023-01-30T07:54:35;8.60;99.90
56044;DHT22;41912;51.022;3.664;2023-01-30T07:57:01;8.50;99.90
56044;DHT22;41912;51.022;3.664;2023-01-30T07:59:26;8.50;99.90
56044;DHT22;41912;51.022;3.664;2023-01-30T08:01:52;8.50;99.90
56044;DHT22;41912;51.022;3.664;2023-01-30T08:04:18;8.40;99.90
56044;DHT22;41912;51.022;3.664;2023-01-30T08:06:43;8.40;99.90
56044;DHT22;41912;51.022;3.664;2023-01-30T08:09:09;8.40;99.90
56044;DHT22;41912;51.022;3.664;2023-01-30T08:11:35;8.40;99.90
56044;DHT22;41912;51.022;3.664;2023-01-30T08:14:01;8.40;99.90
56044;DHT22;41912;51.022;3.664;2023-01-30T08:16:26;8.40;99.90
56044;DHT22;41912;51.022;3.664;2023-01-30T08:18:52;8.50;99.90
56044;DHT22;41912;51.022;3.664;2023-01-30T08:21:19;8.40;99.90
56044;DHT22;41912;51.022;3.664;2023-01-30T08:23:44;8.40;99.90
56044;DHT22;41912;51.022;3.664;2023-01-30T08:26:10;8.40;99.90
56044;DHT22;41912;51.022;3.664;2023-01-30T08:28:36;8.40;99.90
56044;DHT22;41912;51.022;3.664;2023-01-30T08:31:02;8.40;99.90
56044;DHT22;41912;51.022;3.664;2023-01-30T08:33:27;8.40;99.90
56044;DHT22;41912;51.022;3.664;2023-01-30T08:35:54;8.40;99.90
56044;DHT22;41912;51.022;3.664;2023-01-30T08:38:20;8.40;99.90
56044;DHT22;41912;51.022;3.664;2023-01-30T08:40:46;8.40;99.90
56044;DHT22;41912;51.022;3.664;2023-01-30T08:43:11;8.50;99.90
56044;DHT22;41912;51.022;3.664;2023-01-30T08:45:37;8.50;99.90
56044;DHT22;41912;51.022;3.664;2023-01-30T08:48:04;8.50;99.90
56044;DHT22;41912;51.022;3.664;2023-01-30T08:50:31;8.60;99.90
56044;DHT22;41912;51.022;3.664;2023-01-30T08:53:02;8.50;99.90
56044;DHT22;41912;51.022;3.664;2023-01-30T08:55:28;8.50;99.90
56044;DHT22;41912;51.022;3.664;2023-01-30T08:57:55;8.60;99.90
56044;DHT22;41912;51.022;3.664;2023-01-30T09:00:21;8.60;99.90
56044;DHT22;41912;51.022;3.664;2023-01-30T09:02:47;8.60;99.90
56044;DHT22;41912;51.022;3.664;2023-01-30T09:05:12;8.60;99.90
56044;DHT22;41912;51.022;3.664;2023-01-30T09:07:38;8.50;99.90
56044;DHT22;41912;51.022;3.664;2023-01-30T09:10:04;8.60;99.90
56044;DHT22;41912;51.022;3.664;2023-01-30T09:12:30;8.60;99.90
56044;DHT22;41912;51.022;3.664;2023-01-30T09:14:55;8.60;99.90
56044;DHT22;41912;51.022;3.664;2023-01-30T09:17:23;8.70;99.90
56044;DHT22;41912;51.022;3.664;2023-01-30T09:19:49;8.70;99.90
56044;DHT22;41912;51.022;3.664;2023-01-30T09:22:15;8.80;99.90
56044;DHT22;41912;51.022;3.664;2023-01-30T09:24:41;8.70;99.90
56044;DHT22;41912;51.022;3.664;2023-01-30T09:27:07;8.80;99.90
56044;DHT22;41912;51.022;3.664;2023-01-30T09:29:33;8.80;99.90
56044;DHT22;41912;51.022;3.664;2023-01-30T09:31:59;8.80;99.90
56044;DHT22;41912;51.022;3.664;2023-01-30T09:34:25;8.90;99.90
56044;DHT22;41912;51.022;3.664;2023-01-30T09:36:58;8.90;99.90
56044;DHT22;41912;51.022;3.664;2023-01-30T09:39:33;8.90;99.90
56044;DHT22;41912;51.022;3.664;2023-01-30T09:47:31;9.00;99.90
56044;DHT22;41912;51.022;3.664;2023-01-30T09:52:45;9.00;99.90
56044;DHT22;41912;51.022;3.664;2023-01-30T09:55:20;9.10;99.90
56044;DHT22;41912;51.022;3.664;2023-01-30T09:57:47;9.10;99.90
56044;DHT22;41912;51.022;3.664;2023-01-30T10:08:16;9.20;99.90
56044;DHT22;41912;51.022;3.664;2023-01-30T10:11:02;9.20;99.90
56044;DHT22;41912;51.022;3.664;2023-01-30T10:16:21;9.30;99.90
56044;DHT22;41912;51.022;3.664;2023-01-30T10:19:16;9.40;99.90
56044;DHT22;41912;51.022;3.664;2023-01-30T10:22:03;9.40;99.90
56044;DHT22;41912;51.022;3.664;2023-01-30T10:27:13;9.40;99.90
56044;DHT22;41912;51.022;3.664;2023-01-30T10:29:46;9.50;99.90
56044;DHT22;41912;51.022;3.664;2023-01-30T10:32:19;9.50;99.90
56044;DHT22;41912;51.022;3.664;2023-01-30T10:34:54;9.50;99.90
56044;DHT22;41912;51.022;3.664;2023-01-30T10:37:43;9.50;99.90
56044;DHT22;41912;51.022;3.664;2023-01-30T10:46:21;9.60;99.90
56044;DHT22;41912;51.022;3.664;2023-01-30T10:48:57;9.70;99.90
56044;DHT22;41912;51.022;3.664;2023-01-30T10:51:36;9.70;99.90
56044;DHT22;41912;51.022;3.664;2023-01-30T10:57:16;9.80;99.90
56044;DHT22;41912;51.022;3.664;2023-01-30T11:00:02;9.80;99.90
56044;DHT22;41912;51.022;3.664;2023-01-30T11:08:26;9.80;99.90
56044;DHT22;41912;51.022;3.664;2023-01-30T11:10:53;9.90;99.90
56044;DHT22;41912;51.022;3.664;2023-01-30T11:13:21;9.90;99.90
56044;DHT22;41912;51.022;3.664;2023-01-30T11:15:52;10.00;99.90
56044;DHT22;41912;51.022;3.664;2023-01-30T11:18:19;10.00;99.90
56044;DHT22;41912;51.022;3.664;2023-01-30T11:21:04;10.00;99.90
56044;DHT22;41912;51.022;3.664;2023-01-30T11:23:42;10.00;99.90
56044;DHT22;41912;51.022;3.664;2023-01-30T11:26:33;10.10;99.90
56044;DHT22;41912;51.022;3.664;2023-01-30T11:28:59;10.10;99.90
56044;DHT22;41912;51.022;3.664;2023-01-30T11:31:39;10.00;99.90
56044;DHT22;41912;51.022;3.664;2023-01-30T11:34:12;10.00;99.90
56044;DHT22;41912;51.022;3.664;2023-01-30T11:36:39;10.00;99.90
56044;DHT22;41912;51.022;3.664;2023-01-30T11:39:27;10.00;99.90
56044;DHT22;41912;51.022;3.664;2023-01-30T11:44:25;10.00;99.90
56044;DHT22;41912;51.022;3.664;2023-01-30T11:46:51;10.00;99.90
56044;DHT22;41912;51.022;3.664;2023-01-30T11:49:19;10.00;99.90
56044;DHT22;41912;51.022;3.664;2023-01-30T11:51:48;10.00;99.90
56044;DHT22;41912;51.022;3.664;2023-01-30T11:54:30;10.00;99.90
56044;DHT22;41912;51.022;3.664;2023-01-30T11:57:14;10.10;99.90
56044;DHT22;41912;51.022;3.664;2023-01-30T12:04:50;10.10;99.90
56044;DHT22;41912;51.022;3.664;2023-01-30T12:09:50;10.20;99.90
56044;DHT22;41912;51.022;3.664;2023-01-30T12:12:46;10.20;99.90
56044;DHT22;41912;51.022;3.664;2023-01-30T12:15:31;10.30;99.90
56044;DHT22;41912;51.022;3.664;2023-01-30T12:18:04;10.30;99.90
56044;DHT22;41912;51.022;3.664;2023-01-30T12:26:39;10.30;99.90
56044;DHT22;41912;51.022;3.664;2023-01-30T12:31:45;10.20;99.90
56044;DHT22;41912;51.022;3.664;2023-01-30T12:34:12;10.20;99.90
56044;DHT22;41912;51.022;3.664;2023-01-30T12:39:13;10.20;99.90
56044;DHT22;41912;51.022;3.664;2023-01-30T12:52:52;10.20;99.90
56044;DHT22;41912;51.022;3.664;2023-01-30T12:55:41;10.20;99.90
56044;DHT22;41912;51.022;3.664;2023-01-30T13:01:32;10.30;99.90
56044;DHT22;41912;51.022;3.664;2023-01-30T13:07:07;10.30;99.90
56044;DHT22;41912;51.022;3.664;2023-01-30T13:22:57;10.40;99.90
56044;DHT22;41912;51.022;3.664;2023-01-30T13:30:50;10.50;99.90
56044;DHT22;41912;51.022;3.664;2023-01-30T13:33:24;10.50;99.90
56044;DHT22;41912;51.022;3.664;2023-01-30T13:38:32;10.50;99.90
56044;DHT22;41912;51.022;3.664;2023-01-30T13:41:00;10.50;99.90
56044;DHT22;41912;51.022;3.664;2023-01-30T13:43:35;10.50;99.90
56044;DHT22;41912;51.022;3.664;2023-01-30T13:48:44;10.50;99.90
56044;DHT22;41912;51.022;3.664;2023-01-30T13:51:26;10.60;99.90
56044;DHT22;41912;51.022;3.664;2023-01-30T14:08:23;10.60;99.90
56044;DHT22;41912;51.022;3.664;2023-01-30T14:10:52;10.60;99.90
56044;DHT22;41912;51.022;3.664;2023-01-30T14:13:21;10.60;99.90
56044;DHT22;41912;51.022;3.664;2023-01-30T14:15:56;10.70;99.90
56044;DHT22;41912;51.022;3.664;2023-01-30T14:18:37;10.70;99.90
56044;DHT22;41912;51.022;3.664;2023-01-30T14:21:22;10.70;99.90
56044;DHT22;41912;51.022;3.664;2023-01-30T14:23:57;10.70;99.90
56044;DHT22;41912;51.022;3.664;2023-01-30T14:35:18;10.60;99.90
56044;DHT22;41912;51.022;3.664;2023-01-30T14:37:49;10.60;99.90
56044;DHT22;41912;51.022;3.664;2023-01-30T14:45:15;10.60;99.90
56044;DHT22;41912;51.022;3.664;2023-01-30T14:47:41;10.50;99.90
56044;DHT22;41912;51.022;3.664;2023-01-30T14:50:21;10.60;99.90
56044;DHT22;41912;51.022;3.664;2023-01-30T14:52:48;10.60;99.90
56044;DHT22;41912;51.022;3.664;2023-01-30T14:55:20;10.60;99.90
56044;DHT22;41912;51.022;3.664;2023-01-30T14:57:57;10.60;99.90
56044;DHT22;41912;51.022;3.664;2023-01-30T15:00:29;10.60;99.90
56044;DHT22;41912;51.022;3.664;2023-01-30T15:03:02;10.70;99.90
56044;DHT22;41912;51.022;3.664;2023-01-30T15:05:33;10.70;99.90
56044;DHT22;41912;51.022;3.664;2023-01-30T15:08:15;10.70;99.90
56044;DHT22;41912;51.022;3.664;2023-01-30T15:18:49;10.50;99.90
56044;DHT22;41912;51.022;3.664;2023-01-30T15:24:36;10.70;99.90
56044;DHT22;41912;51.022;3.664;2023-01-30T15:27:25;11.00;99.90
56044;DHT22;41912;51.022;3.664;2023-01-30T15:33:19;11.90;99.90
56044;DHT22;41912;51.022;3.664;2023-01-30T15:35:45;11.80;99.90
56044;DHT22;41912;51.022;3.664;2023-01-30T15:40:58;11.50;99.90
56044;DHT22;41912;51.022;3.664;2023-01-30T15:51:13;10.70;99.90
56044;DHT22;41912;51.022;3.664;2023-01-30T15:53:42;10.50;99.90
56044;DHT22;41912;51.022;3.664;2023-01-30T15:56:10;10.40;99.90
56044;DHT22;41912;51.022;3.664;2023-01-30T15:58:39;10.40;99.90
56044;DHT22;41912;51.022;3.664;2023-01-30T16:01:21;10.30;99.90
56044;DHT22;41912;51.022;3.664;2023-01-30T16:03:48;10.20;99.90
56044;DHT22;41912;51.022;3.664;2023-01-30T16:06:43;10.10;99.90
56044;DHT22;41912;51.022;3.664;2023-01-30T16:09:20;10.10;99.90
56044;DHT22;41912;51.022;3.664;2023-01-30T16:11:46;10.00;99.90
56044;DHT22;41912;51.022;3.664;2023-01-30T16:14:18;9.90;99.90
56044;DHT22;41912;51.022;3.664;2023-01-30T16:17:04;9.90;99.90
56044;DHT22;41912;51.022;3.664;2023-01-30T16:19:33;9.90;99.90
56044;DHT22;41912;51.022;3.664;2023-01-30T16:22:03;9.80;99.90
56044;DHT22;41912;51.022;3.664;2023-01-30T16:24:31;9.70;99.90
56044;DHT22;41912;51.022;3.664;2023-01-30T16:27:01;9.70;99.90
56044;DHT22;41912;51.022;3.664;2023-01-30T16:29:30;9.70;99.90
56044;DHT22;41912;51.022;3.664;2023-01-30T16:31:56;9.70;99.90
56044;DHT22;41912;51.022;3.664;2023-01-30T16:34:36;9.60;99.90
56044;DHT22;41912;51.022;3.664;2023-01-30T16:37:25;9.60;99.90
56044;DHT22;41912;51.022;3.664;2023-01-30T16:40:24;9.60;99.90
56044;DHT22;41912;51.022;3.664;2023-01-30T16:42:58;9.60;99.90
56044;DHT22;41912;51.022;3.664;2023-01-30T16:53:25;9.40;99.90
56044;DHT22;41912;51.022;3.664;2023-01-30T16:56:14;9.40;99.90
56044;DHT22;41912;51.022;3.664;2023-01-30T16:58:44;9.40;99.90
56044;DHT22;41912;51.022;3.664;2023-01-30T17:01:10;9.30;99.90
56044;DHT22;41912;51.022;3.664;2023-01-30T17:03:39;9.30;99.90
56044;DHT22;41912;51.022;3.664;2023-01-30T17:06:09;9.30;99.90
56044;DHT22;41912;51.022;3.664;2023-01-30T17:08:51;9.30;99.90
56044;DHT22;41912;51.022;3.664;2023-01-30T17:11:37;9.30;99.90
56044;DHT22;41912;51.022;3.664;2023-01-30T17:17:00;9.30;99.90
56044;DHT22;41912;51.022;3.664;2023-01-30T17:19:26;9.30;99.90
56044;DHT22;41912;51.022;3.664;2023-01-30T17:21:52;9.30;99.90
56044;DHT22;41912;51.022;3.664;2023-01-30T17:24:21;9.30;99.90
56044;DHT22;41912;51.022;3.664;2023-01-30T17:26:48;9.30;99.90
56044;DHT22;41912;51.022;3.664;2023-01-30T17:29:15;9.30;99.90
56044;DHT22;41912;51.022;3.664;2023-01-30T17:31:47;9.30;99.90
56044;DHT22;41912;51.022;3.664;2023-01-30T17:34:14;9.30;99.90
56044;DHT22;41912;51.022;3.664;2023-01-30T17:36:40;9.30;99.90
56044;DHT22;41912;51.022;3.664;2023-01-30T17:39:10;9.20;99.90
56044;DHT22;41912;51.022;3.664;2023-01-30T17:41:37;9.20;99.90
56044;DHT22;41912;51.022;3.664;2023-01-30T17:44:03;9.20;99.90
56044;DHT22;41912;51.022;3.664;2023-01-30T17:46:50;9.20;99.90
56044;DHT22;41912;51.022;3.664;2023-01-30T17:49:22;9.20;99.90
56044;DHT22;41912;51.022;3.664;2023-01-30T17:51:49;9.20;99.90
56044;DHT22;41912;51.022;3.664;2023-01-30T17:54:16;9.20;99.90
56044;DHT22;41912;51.022;3.664;2023-01-30T17:56:44;9.10;99.90
56044;DHT22;41912;51.022;3.664;2023-01-30T17:59:15;9.10;99.90
56044;DHT22;41912;51.022;3.664;2023-01-30T18:01:42;9.10;99.90
56044;DHT22;41912;51.022;3.664;2023-01-30T18:04:08;9.10;99.90
56044;DHT22;41912;51.022;3.664;2023-01-30T18:06:34;9.10;99.90
56044;DHT22;41912;51.022;3.664;2023-01-30T18:09:00;9.10;99.90
56044;DHT22;41912;51.022;3.664;2023-01-30T18:11:26;9.10;99.90
56044;DHT22;41912;51.022;3.664;2023-01-30T18:13:51;9.10;99.90
56044;DHT22;41912;51.022;3.664;2023-01-30T18:16:26;9.10;99.90
56044;DHT22;41912;51.022;3.664;2023-01-30T18:18:59;9.10;99.90
56044;DHT22;41912;51.022;3.664;2023-01-30T18:21:28;9.00;99.90
56044;DHT22;41912;51.022;3.664;2023-01-30T18:23:53;9.00;99.90
56044;DHT22;41912;51.022;3.664;2023-01-30T18:26:19;9.00;99.90
56044;DHT22;41912;51.022;3.664;2023-01-30T18:28:45;9.00;99.90
56044;DHT22;41912;51.022;3.664;2023-01-30T18:31:11;9.00;99.90
56044;DHT22;41912;51.022;3.664;2023-01-30T18:33:41;8.90;99.90
56044;DHT22;41912;51.022;3.664;2023-01-30T18:36:11;8.90;99.90
56044;DHT22;41912;51.022;3.664;2023-01-30T18:38:37;8.90;99.90
56044;DHT22;41912;51.022;3.664;2023-01-30T18:41:07;8.80;99.90
56044;DHT22;41912;51.022;3.664;2023-01-30T18:43:33;8.80;99.90
56044;DHT22;41912;51.022;3.664;2023-01-30T18:46:02;8.80;99.90
56044;DHT22;41912;51.022;3.664;2023-01-30T18:48:29;8.80;99.90
56044;DHT22;41912;51.022;3.664;2023-01-30T18:51:05;8.80;99.90
56044;DHT22;41912;51.022;3.664;2023-01-30T18:53:31;8.80;99.90
56044;DHT22;41912;51.022;3.664;2023-01-30T18:55:57;8.70;99.90
56044;DHT22;41912;51.022;3.664;2023-01-30T18:58:23;8.70;99.90
56044;DHT22;41912;51.022;3.664;2023-01-30T19:00:49;8.70;99.90
56044;DHT22;41912;51.022;3.664;2023-01-30T19:03:15;8.70;99.90
56044;DHT22;41912;51.022;3.664;2023-01-30T19:05:41;8.70;99.90
56044;DHT22;41912;51.022;3.664;2023-01-30T19:08:07;8.70;99.90
56044;DHT22;41912;51.022;3.664;2023-01-30T19:10:32;8.70;99.90